< < Back
Terminal Aerodrome Forecast


Current Version              Previous Versions:   1  2  3  4  5  6  7  8  9  

Terminal Aerodrome Forecast

091
FTUS42 KFFC 201953 AAA
TAFMCN
TAF AMD
KMCN 201953Z 2020/2118 22007KT P6SM SCT050
      TEMPO 2020/2023 3SM TSRA BKN025CB
     FM210100 22008G14KT P6SM BKN040
     FM210500 28008KT P6SM SCT070
     FM210800 33009G14KT P6SM FEW200
     FM211500 33007KT P6SM FEW050
     FM211700 29007KT P6SM FEW050=



Latest METAR

562
SAUS80 KWBC 210600
MTRMCN
METAR KMCN 210553Z AUTO 30006KT 10SM CLR 17/11 A2989 RMK AO2 SLP117
T01670106 10211 20167 51018 TSNO


USA.gov is the U.S. government's official web portal to all federal, state and local government web resources and services.